Terminal Aerodrome Forecast
Issued by NWS

Home | Current Version | Previous Version | Text Only | Print | Product List | Glossary Off
Versions: 1 2 3 4 5 6 7 8 9 10 11 12 13 14 15 16 17 18 19

000
FTUS43 KGRB 061133
TAFAUW
TAF
KAUW 061133Z 0612/0712 15006KT 5SM BR SCT035 OVC070 WS010/22035KT
      TEMPO 0613/0616 36010G20KT 2SM TSRA BR BKN020CB
     FM061600 19011G18KT P6SM SCT025 OVC050
      TEMPO 0620/0624 1SM +TSRA OVC012CB
     FM070000 VRB03KT 5SM SHRA BR SCT011 BKN025
     FM070300 35009KT 6SM -SHRA BKN011 OVC020
     FM070600 36011G17KT P6SM SCT014 OVC030=

USA.gov is the U.S. government's official web portal to all federal, state and local government web resources and services.